Time;durP1;ratioP1;P1;durP2;ratioP2;P2;SDS_P1;SDS_P2;PMS_P1;PMS_P2;Temp;Humidity;BMP_temperature;BMP_pressure;BME280_temperature;BME280_humidity;BME280_pressure;Samples;Min_cycle;Max_cycle;Signal;HPM_P1;HPM_P2
2023/08/24 00:05:29;;;;;;;;;;;;;;;18.14;67.99;101436.25;15685427;28;20041;-52
2023/08/24 00:13:02;;;;;;;8.82;5.05;;;;;;;18.11;67.67;101437.59;15685057;28;20020;-55
2023/08/24 00:20:39;;;;;;;10.52;5.90;;;;;;;18.04;67.71;101426.03;15624871;28;20107;-51
2023/08/24 00:28:12;;;;;;;8.27;5.55;;;;;;;18.00;68.25;101424.88;15623122;28;20524;-52
2023/08/24 00:35:47;;;;;;;10.43;5.50;;;;;;;17.82;67.64;101415.03;15622736;28;20069;-54
2023/08/24 00:43:23;;;;;;;14.40;6.13;;;;;;;17.89;67.42;101420.31;15622571;28;20072;-52
2023/08/24 00:51:00;;;;;;;14.27;5.90;;;;;;;17.54;68.77;101416.63;15639220;28;20045;-53
2023/08/24 00:58:34;;;;;;;8.38;6.28;;;;;;;17.58;68.78;101415.09;15638875;28;20132;-52
2023/08/24 01:06:09;;;;;;;8.35;5.90;;;;;;;17.53;68.37;101401.41;15621156;28;20046;-52
2023/08/24 01:13:51;;;;;;;8.18;6.47;;;;;;;17.57;68.73;101409.88;15643732;28;20033;-56
2023/08/24 01:21:26;;;;;;;10.20;6.65;;;;;;;17.57;68.25;101410.69;15681685;28;20045;-53
2023/08/24 01:29:03;;;;;;;9.18;6.57;;;;;;;17.47;68.58;101418.63;15664644;28;20052;-50
2023/08/24 01:36:36;;;;;;;9.20;6.40;;;;;;;17.45;68.50;101415.34;15680611;28;20079;-51
2023/08/24 01:44:18;;;;;;;10.18;7.40;;;;;;;17.41;69.20;101416.91;15680141;28;20549;-51
2023/08/24 01:51:51;;;;;;;8.07;6.93;;;;;;;17.35;69.58;101412.44;15680035;28;20532;-51
2023/08/24 01:59:26;;;;;;;11.70;7.45;;;;;;;17.41;69.07;101413.34;15680338;28;20060;-54
2023/08/24 02:07:03;;;;;;;9.23;7.00;;;;;;;17.34;69.29;101403.44;15679815;28;20037;-52
2023/08/24 02:14:37;;;;;;;;;;;;;;;17.57;68.67;101407.16;15647962;28;20124;-53
2023/08/24 02:22:14;;;;;;;10.75;6.97;;;;;;;17.50;68.56;101396.47;15615788;28;19947;-53
2023/08/24 02:29:48;;;;;;;8.82;7.50;;;;;;;17.65;68.06;101412.22;15617340;28;20095;-51
2023/08/24 02:37:23;;;;;;;8.25;7.28;;;;;;;17.69;68.45;101397.09;15599748;28;20041;-53
2023/08/24 02:44:57;;;;;;;9.55;6.75;;;;;;;17.63;69.00;101387.22;15615190;28;20468;-55
2023/08/24 02:52:34;;;;;;;9.77;6.78;;;;;;;17.41;69.16;101397.91;15614911;28;20040;-53
2023/08/24 03:00:13;;;;;;;9.38;6.85;;;;;;;17.40;69.42;101400.84;15615016;28;20095;-52
2023/08/24 03:07:47;;;;;;;8.27;7.30;;;;;;;17.55;69.24;101395.72;15599043;28;20048;-54
2023/08/24 03:15:21;;;;;;;8.25;7.20;;;;;;;17.48;70.57;101387.72;15663300;22;20053;-48
2023/08/24 03:22:54;;;;;;;9.55;7.20;;;;;;;17.87;68.91;101403.47;15658642;28;20041;-49
2023/08/24 03:30:29;;;;;;;9.60;7.32;;;;;;;17.95;68.65;101397.59;15659127;28;20045;-50
2023/08/24 03:38:05;;;;;;;8.52;7.13;;;;;;;18.06;69.69;101380.44;15683526;28;20080;-49
2023/08/24 03:45:40;;;;;;;8.85;6.78;;;;;;;17.84;70.12;101380.31;15687967;28;20094;-48
2023/08/24 03:53:13;;;;;;;10.00;6.95;;;;;;;17.96;69.39;101367.50;15687618;28;20120;-48
2023/08/24 04:00:48;;;;;;;8.35;6.90;;;;;;;18.04;69.81;101372.53;15669749;28;20041;-48
2023/08/24 04:08:24;;;;;;;11.50;7.05;;;;;;;18.01;69.14;101375.75;15652899;28;20167;-48
2023/08/24 04:15:59;;;;;;;10.88;6.78;;;;;;;18.30;67.92;101375.69;15652733;28;20106;-48
2023/08/24 04:23:32;;;;;;;13.43;7.70;;;;;;;18.32;67.80;101371.66;15668633;28;20063;-47
2023/08/24 04:31:06;;;;;;;;;;;;;;;18.26;68.85;101366.38;15668406;28;20052;-48
2023/08/24 04:38:39;;;;;;;11.05;7.22;;;;;;;18.09;68.98;101360.91;15684686;28;19968;-48
2023/08/24 04:46:14;;;;;;;9.60;7.28;;;;;;;18.51;67.80;101376.84;15682990;28;20055;-49
2023/08/24 04:53:50;;;;;;;12.75;7.10;;;;;;;18.52;67.45;101378.50;15667027;28;20128;-48
2023/08/24 05:01:25;;;;;;;10.80;7.60;;;;;;;18.13;69.29;101383.81;15683803;28;20131;-50
2023/08/24 05:08:58;;;;;;;14.38;7.55;;;;;;;18.49;69.27;101387.16;15665817;28;20041;-47
2023/08/24 05:16:33;;;;;;;9.77;6.50;;;;;;;18.36;68.37;101389.13;15682804;28;20052;-50
2023/08/24 05:24:06;;;;;;;14.57;6.40;;;;;;;18.50;67.63;101384.19;15665547;28;20045;-50
2023/08/24 05:31:40;;;;;;;10.02;5.85;;;;;;;18.70;66.62;101391.88;15682654;28;20099;-47
2023/08/24 05:39:13;;;;;;;7.05;5.72;;;;;;;18.75;65.84;101391.97;15664198;28;20068;-47
2023/08/24 05:46:48;;;;;;;;;;;;;;;18.61;66.61;101394.16;15663880;28;20045;-47
2023/08/24 05:54:21;;;;;;;9.90;5.40;;;;;;;19.32;65.13;101396.28;15680760;28;19921;-49
2023/08/24 06:01:56;;;;;;;9.68;5.20;;;;;;;19.49;63.31;101378.00;15661911;28;20095;-48
2023/08/24 06:09:29;;;;;;;12.43;5.03;;;;;;;20.14;61.96;101384.44;15679895;28;20045;-47
2023/08/24 06:17:05;;;;;;;7.03;4.80;;;;;;;20.34;60.75;101392.00;15616474;28;20073;-47
2023/08/24 06:24:38;;;;;;;8.32;4.43;;;;;;;21.09;59.79;101382.72;15617486;28;20053;-50
2023/08/24 06:32:13;;;;;;;9.15;3.38;;;;;;;21.64;59.00;101381.34;15616506;28;20119;-47
2023/08/24 06:39:47;;;;;;;9.32;3.22;;;;;;;22.06;57.34;101387.75;15617402;28;20045;-51
2023/08/24 06:47:22;;;;;;;4.40;3.20;;;;;;;22.04;57.38;101384.44;15614781;28;20418;-49
2023/08/24 06:54:56;;;;;;;6.00;2.97;;;;;;;22.58;57.15;101390.25;15614668;28;20049;-49
2023/08/24 07:02:30;;;;;;;5.53;3.00;;;;;;;22.25;56.76;101402.56;15615622;28;20095;-47
2023/08/24 07:10:04;;;;;;;6.63;2.92;;;;;;;22.84;55.56;101398.41;15618316;28;20054;-49
2023/08/24 07:17:41;;;;;;;3.83;2.70;;;;;;;23.02;53.73;101408.81;15683218;28;20131;-51
2023/08/24 07:25:14;;;;;;;7.72;3.05;;;;;;;24.15;51.00;101392.69;15689385;28;20505;-51
2023/08/24 07:32:50;;;;;;;4.05;2.55;;;;;;;24.48;50.41;101387.50;15671733;28;20045;-49
2023/08/24 07:40:26;;;;;;;5.65;3.08;;;;;;;24.41;48.19;101387.84;15672588;28;20053;-51
2023/08/24 07:48:00;;;;;;;6.10;2.60;;;;;;;24.52;49.47;101375.69;15670828;28;20072;-50
2023/08/24 07:55:33;;;;;;;7.85;2.70;;;;;;;24.98;49.71;101375.22;15653812;28;20497;-49
2023/08/24 08:03:08;;;;;;;4.78;2.72;;;;;;;25.05;47.29;101366.66;15688057;28;20049;-48
2023/08/24 08:10:41;;;;;;;4.97;2.67;;;;;;;25.29;48.30;101375.72;15687205;28;20474;-50
2023/08/24 08:18:15;;;;;;;7.25;2.70;;;;;;;25.83;47.31;101385.47;15625353;28;20398;-51
2023/08/24 08:25:48;;;;;;;4.65;2.90;;;;;;;25.03;47.96;101366.91;15622525;28;20053;-53
2023/08/24 08:33:24;;;;;;;5.55;2.60;;;;;;;25.13;47.89;101341.28;15623936;28;20041;-50
2023/08/24 08:41:02;;;;;;;6.75;2.92;;;;;;;25.28;48.13;101354.03;15622797;28;20120;-52
2023/08/24 08:48:38;;;;;;;6.57;2.60;;;;;;;25.60;47.56;101356.91;15622840;28;20118;-50
2023/08/24 08:56:12;;;;;;;5.10;2.35;;;;;;;25.14;46.60;101349.25;15622622;28;20038;-52
2023/08/24 09:03:47;;;;;;;8.20;2.38;;;;;;;24.96;47.91;101332.69;15623538;28;20060;-48
2023/08/24 09:11:21;;;;;;;10.23;2.67;;;;;;;24.94;48.59;101320.03;15625475;28;20116;-49
2023/08/24 09:18:55;;;;;;;7.45;2.20;;;;;;;25.39;47.85;101309.63;15670902;23;20465;-52
2023/08/24 09:26:29;;;;;;;8.27;2.28;;;;;;;25.48;47.27;101312.53;15678493;28;20517;-50
2023/08/24 09:34:04;;;;;;;5.07;2.40;;;;;;;25.27;48.06;101302.91;15675757;28;20071;-51
2023/08/24 09:41:49;;;;;;;5.70;2.42;;;;;;;25.56;47.91;101297.31;15675982;28;20544;-50
2023/08/24 09:49:30;;;;;;;4.95;2.28;;;;;;;26.54;45.91;101284.44;15641747;28;20053;-48
2023/08/24 09:57:09;;;;;;;4.60;2.20;;;;;;;26.98;43.70;101276.66;15675712;28;20048;-50
2023/08/24 10:04:51;;;;;;;5.47;2.00;;;;;;;27.42;42.56;101278.78;15674974;28;20061;-53
2023/08/24 10:12:27;;;;;;;8.93;2.53;;;;;;;28.40;41.79;101265.06;15656003;28;20045;-50
2023/08/24 10:20:06;;;;;;;3.15;1.60;;;;;;;28.12;40.48;101260.78;15673761;28;20041;-52
2023/08/24 10:27:50;;;;;;;4.03;1.45;;;;;;;28.95;39.75;101253.56;15655498;28;20079;-49
2023/08/24 10:35:26;;;;;;;5.18;1.80;;;;;;;29.30;37.43;101258.34;15673076;28;20136;-54
2023/08/24 10:43:07;;;;;;;4.53;1.90;;;;;;;29.16;37.01;101264.00;15654188;28;20049;-50
2023/08/24 10:51:02;;;;;;;6.18;1.83;;;;;;;28.34;39.67;101265.47;15672636;28;20037;-45
2023/08/24 10:58:37;;;;;;;3.53;1.77;;;;;;;28.46;39.05;101258.25;15654520;28;20427;-51
2023/08/24 11:06:20;;;;;;;5.05;1.65;;;;;;;29.73;36.43;101236.22;15672387;28;20041;-47
2023/08/24 11:14:17;;;;;;;5.43;2.10;;;;;;;29.10;37.79;101218.28;15671766;28;20133;-49
2023/08/24 11:21:59;;;;;;;5.13;1.67;;;;;;;30.69;35.60;101207.06;15672109;28;20507;-50
2023/08/24 11:29:39;;;;;;;5.40;1.73;;;;;;;31.59;35.23;101193.84;15654055;28;20365;-56
2023/08/24 11:37:20;;;;;;;4.55;1.90;;;;;;;30.91;35.36;101180.19;15671460;28;20085;-47
2023/08/24 11:44:53;;;;;;;5.37;1.70;;;;;;;31.40;34.18;101161.06;15636413;28;20078;-51
2023/08/24 11:52:28;;;;;;;5.40;1.90;;;;;;;30.46;36.05;101156.69;15636384;28;20791;-55
2023/08/24 12:00:02;;;;;;;5.32;2.05;;;;;;;30.40;35.58;101148.88;15680079;28;20053;-54
2023/08/24 12:07:41;;;;;;;4.05;2.10;;;;;;;30.68;34.33;101150.03;15683097;28;20052;-46
2023/08/24 12:15:19;;;;;;;4.82;1.92;;;;;;;30.32;35.73;101150.56;15628777;28;20068;-53
2023/08/24 12:22:55;;;;;;;6.38;1.73;;;;;;;30.41;35.05;101134.72;15601225;28;20064;-49
2023/08/24 12:30:28;;;;;;;4.78;1.70;;;;;;;31.52;33.81;101119.47;15619475;28;20050;-57
2023/08/24 12:38:04;;;;;;;7.43;2.10;;;;;;;29.80;35.90;101128.63;15617934;28;20044;-46
2023/08/24 12:45:38;;;;;;;3.67;2.17;;;;;;;30.79;34.00;101106.13;15617635;28;20048;-47
2023/08/24 12:53:12;;;;;;;4.65;2.20;;;;;;;31.63;32.87;101090.16;15599314;28;20048;-50
2023/08/24 13:00:46;;;;;;;5.15;1.80;;;;;;;32.25;33.46;101071.56;15599370;28;20113;-48
2023/08/24 13:08:21;;;;;;;6.22;2.00;;;;;;;31.25;32.77;101051.53;15614806;28;20057;-50
2023/08/24 13:15:55;;;;;;;5.80;1.80;;;;;;;31.77;33.79;101050.16;15623011;28;20045;-49
2023/08/24 13:23:29;;;;;;;4.47;2.03;;;;;;;30.66;34.08;101054.50;15677960;28;20037;-49
2023/08/24 13:31:02;;;;;;;4.85;2.28;;;;;;;32.56;31.94;101034.81;15659126;28;20037;-47
2023/08/24 13:38:37;;;;;;;5.03;1.80;;;;;;;32.39;31.72;101004.53;15675886;28;20174;-47
2023/08/24 13:46:13;;;;;;;5.05;2.10;;;;;;;32.53;31.35;100993.81;15675430;28;20099;-48
2023/08/24 13:53:48;;;;;;;4.82;1.90;;;;;;;30.76;34.31;100998.69;15656614;28;20033;-51
2023/08/24 14:01:22;;;;;;;5.68;4.53;;;;;;;31.62;33.26;100980.28;15674352;28;20048;-47
2023/08/24 14:08:57;;;;;;;6.13;2.10;;;;;;;30.51;34.93;100947.88;15656872;28;20049;-48
2023/08/24 14:16:31;;;;;;;4.60;2.22;;;;;;;29.94;35.74;100948.50;15626106;28;20574;-49
2023/08/24 14:24:16;;;;;;;5.15;2.35;;;;;;;29.60;35.25;100957.78;15611778;28;20395;-53
2023/08/24 14:31:49;;;;;;;4.50;2.33;;;;;;;29.32;36.67;100960.97;15612523;28;20065;-51
2023/08/24 14:39:24;;;;;;;4.22;2.28;;;;;;;28.57;39.21;100960.47;15593931;28;20405;-48
2023/08/24 14:46:57;;;;;;;4.28;2.40;;;;;;;28.65;39.09;100972.66;15610687;28;20069;-51
2023/08/24 14:54:31;;;;;;;3.92;2.30;;;;;;;29.21;38.77;101001.19;15576563;28;20450;-53
2023/08/24 15:02:05;;;;;;;5.78;2.65;;;;;;;29.15;39.39;101005.28;15576558;28;20045;-52
2023/08/24 15:09:39;;;;;;;3.60;2.13;;;;;;;28.38;38.84;100998.66;15593176;28;20427;-47
2023/08/24 15:17:13;;;;;;;3.97;1.98;;;;;;;28.41;36.78;100984.22;15661880;28;20159;-54
2023/08/24 15:24:47;;;;;;;5.97;2.50;;;;;;;28.41;38.04;100985.03;15653965;28;20520;-51
2023/08/24 15:32:21;;;;;;;5.35;2.20;;;;;;;28.78;37.95;100966.16;15676424;28;20053;-55
2023/08/24 15:39:56;;;;;;;10.00;3.60;;;;;;;28.28;38.01;100957.53;15685782;28;20102;-56
2023/08/24 15:47:29;;;;;;;3.95;2.42;;;;;;;27.63;38.41;100923.34;15648778;28;20095;-55
2023/08/24 15:55:04;;;;;;;5.18;2.53;;;;;;;28.23;38.32;100933.66;15682742;28;20063;-56
2023/08/24 16:02:39;;;;;;;6.15;2.40;;;;;;;28.43;37.54;100926.69;15681934;28;20070;-57
2023/08/24 16:10:13;;;;;;;5.82;2.20;;;;;;;28.64;37.97;100908.31;15682214;28;20095;-55
2023/08/24 16:17:48;;;;;;;6.95;2.40;;;;;;;28.95;37.84;100893.47;15624024;28;20045;-56
2023/08/24 16:25:22;;;;;;;3.45;2.47;;;;;;;28.44;37.22;100889.66;15619312;28;20052;-53
2023/08/24 16:32:55;;;;;;;6.97;2.70;;;;;;;28.61;38.17;100884.13;15600900;28;20516;-52
2023/08/24 16:40:33;;;;;;;5.20;2.20;;;;;;;29.02;36.30;100887.44;15601649;28;20038;-56
2023/08/24 16:48:07;;;;;;;4.38;2.33;;;;;;;28.94;36.76;100889.88;15600794;28;20049;-56
2023/08/24 16:55:41;;;;;;;4.88;2.38;;;;;;;28.79;37.51;100889.59;15617571;28;20038;-55
2023/08/24 17:03:15;;;;;;;8.48;2.83;;;;;;;28.73;39.91;100897.25;15617130;28;20041;-56
2023/08/24 17:10:51;;;;;;;5.90;2.20;;;;;;;28.58;38.24;100884.75;15599193;28;20073;-56
2023/08/24 17:18:24;;;;;;;7.95;3.05;;;;;;;28.43;42.43;100880.56;15659290;28;20049;-53
2023/08/24 17:25:58;;;;;;;3.72;2.80;;;;;;;28.04;45.11;100884.31;15677003;28;20049;-51
2023/08/24 17:33:34;;;;;;;7.05;3.35;;;;;;;27.35;47.80;100870.38;15677175;28;20045;-52
2023/08/24 17:41:11;;;;;;;9.45;3.50;;;;;;;27.09;48.47;100868.38;15676424;28;20052;-51
2023/08/24 17:48:48;;;;;;;5.30;2.97;;;;;;;26.74;48.44;100859.09;15676880;28;20088;-51
2023/08/24 17:56:23;;;;;;;6.60;3.40;;;;;;;26.54;49.86;100865.94;15641482;28;20118;-52
2023/08/24 18:03:56;;;;;;;11.32;3.33;;;;;;;26.36;50.34;100856.72;15675205;28;20065;-52
2023/08/24 18:11:30;;;;;;;8.70;3.58;;;;;;;25.93;52.21;100856.41;15670580;28;20141;-56
2023/08/24 18:19:04;;;;;;;10.32;3.83;;;;;;;26.03;51.16;100847.91;15594246;28;20049;-55
2023/08/24 18:26:38;;;;;;;10.55;3.63;;;;;;;26.02;50.50;100837.19;15611358;28;20042;-51
2023/08/24 18:34:12;;;;;;;9.88;4.00;;;;;;;25.99;50.12;100827.66;15611192;28;20144;-53
2023/08/24 18:41:49;;;;;;;12.70;3.33;;;;;;;25.81;50.70;100815.69;15611710;28;20042;-55
2023/08/24 18:49:22;;;;;;;10.70;3.72;;;;;;;25.30;51.93;100830.53;15593538;28;20095;-53
2023/08/24 18:56:56;;;;;;;9.95;3.50;;;;;;;25.05;52.50;100822.78;15611625;28;20037;-53
2023/08/24 19:04:30;;;;;;;11.80;4.47;;;;;;;24.76;54.02;100795.59;15593066;28;20120;-53
2023/08/24 19:12:06;;;;;;;8.95;4.03;;;;;;;24.94;52.90;100792.75;15601407;28;20076;-56
2023/08/24 19:19:39;;;;;;;12.15;4.00;;;;;;;24.73;52.63;100804.47;15653895;28;20052;-52
2023/08/24 19:27:13;;;;;;;6.60;3.92;;;;;;;24.29;54.61;100790.09;15653927;28;20053;-53
2023/08/24 19:34:46;;;;;;;7.93;4.57;;;;;;;24.29;55.60;100773.66;15670974;28;20049;-51
2023/08/24 19:42:21;;;;;;;8.50;4.55;;;;;;;24.19;55.05;100744.47;15670963;28;20063;-53
2023/08/24 19:49:54;;;;;;;6.57;4.80;;;;;;;24.21;53.39;100765.31;15653191;28;20045;-54
2023/08/24 19:57:30;;;;;;;9.60;4.68;;;;;;;24.25;53.76;100763.59;15670268;28;20107;-54
2023/08/24 20:05:04;;;;;;;10.27;5.20;;;;;;;24.35;53.11;100736.00;15653019;28;20119;-53
2023/08/24 20:12:43;;;;;;;10.48;5.40;;;;;;;24.22;53.35;100731.28;15638758;28;20049;-52
2023/08/24 20:20:21;;;;;;;8.50;5.25;;;;;;;23.74;55.39;100732.38;15614657;28;20046;-55
2023/08/24 20:27:56;;;;;;;7.07;4.97;;;;;;;23.77;55.34;100717.25;15600986;28;20047;-52
2023/08/24 20:35:29;;;;;;;8.63;5.07;;;;;;;23.42;56.57;100700.22;15618578;28;20080;-53
2023/08/24 20:43:05;;;;;;;7.22;5.00;;;;;;;23.89;55.10;100677.28;15618055;28;20501;-53
2023/08/24 20:50:38;;;;;;;9.63;4.78;;;;;;;23.78;55.28;100661.31;15617495;28;20111;-51
2023/08/24 20:58:14;;;;;;;11.68;4.70;;;;;;;23.75;54.76;100653.69;15616987;28;20046;-50
2023/08/24 21:05:47;;;;;;;8.68;5.03;;;;;;;23.86;54.18;100652.41;15598811;28;20033;-53
2023/08/24 21:13:22;;;;;;;15.02;5.03;;;;;;;23.78;54.74;100648.44;15618647;28;20060;-47
2023/08/24 21:20:58;;;;;;;10.48;4.80;;;;;;;23.34;54.93;100651.59;15679124;28;20106;-45
2023/08/24 21:28:32;;;;;;;7.95;5.00;;;;;;;23.85;53.83;100651.59;15676132;28;20048;-50
2023/08/24 21:36:06;;;;;;;8.95;4.70;;;;;;;23.81;54.47;100666.19;15676806;28;20048;-49
2023/08/24 21:43:41;;;;;;;9.73;4.82;;;;;;;23.87;53.02;100665.78;15658358;28;20052;-46
2023/08/24 21:51:14;;;;;;;7.35;4.63;;;;;;;23.81;52.43;100656.03;15675775;28;20045;-48
2023/08/24 21:58:48;;;;;;;8.10;4.80;;;;;;;23.93;53.72;100652.84;15675655;28;20653;-51
2023/08/24 22:06:22;;;;;;;8.55;5.00;;;;;;;24.03;54.11;100649.09;15674374;28;20121;-50
2023/08/24 22:13:58;;;;;;;7.05;4.80;;;;;;;23.96;54.03;100643.16;15648992;28;20038;-49
2023/08/24 22:21:37;;;;;;;7.80;4.95;;;;;;;23.91;54.85;100630.38;15596156;28;20097;-50
2023/08/24 22:29:12;;;;;;;8.70;4.95;;;;;;;23.85;54.32;100620.63;15594818;28;20493;-52
2023/08/24 22:36:45;;;;;;;6.68;5.07;;;;;;;23.56;55.14;100631.78;15593652;28;20120;-46
2023/08/24 22:44:19;;;;;;;5.80;4.80;;;;;;;23.71;54.84;100617.84;15576853;28;20053;-49
2023/08/24 22:51:52;;;;;;;8.45;5.00;;;;;;;23.72;55.13;100613.19;15611063;28;20045;-48
2023/08/24 22:59:26;;;;;;;9.45;5.15;;;;;;;23.69;55.85;100625.56;15610551;28;20052;-48
2023/08/24 23:07:07;;;;;;;6.70;5.00;;;;;;;23.68;55.53;100618.44;15610186;28;20049;-47
2023/08/24 23:14:44;;;;;;;7.80;5.07;;;;;;;23.45;55.33;100606.47;15624432;28;20111;-49
2023/08/24 23:22:22;;;;;;;6.65;4.90;;;;;;;23.60;53.78;100613.66;15670976;28;20049;-49
2023/08/24 23:30:00;;;;;;;8.07;4.70;;;;;;;23.68;54.13;100615.69;15672103;28;20132;-51
2023/08/24 23:37:33;;;;;;;5.47;4.43;;;;;;;23.39;53.50;100618.63;15671129;28;20041;-47
2023/08/24 23:45:09;;;;;;;7.53;4.85;;;;;;;23.58;52.82;100613.91;15652705;28;20152;-51
2023/08/24 23:52:42;;;;;;;7.07;4.65;;;;;;;23.69;52.94;100609.13;15674138;28;20037;-50
